createdAt,value
2022-07-31T00:00:03.000Z,81.4
2022-07-31T00:02:48.000Z,82.2
2022-07-31T00:05:33.000Z,85.6
2022-07-31T00:08:17.000Z,85.1
2022-07-31T00:11:02.000Z,85.3
2022-07-31T00:13:47.000Z,84.7
2022-07-31T00:16:31.000Z,84.6
2022-07-31T00:19:16.000Z,84.8
2022-07-31T00:22:01.000Z,85.5
2022-07-31T00:24:45.000Z,85.6
2022-07-31T00:27:30.000Z,85.2
2022-07-31T00:30:14.000Z,84.6
2022-07-31T00:32:59.000Z,84.7
2022-07-31T00:35:44.000Z,84.4
2022-07-31T00:38:28.000Z,84.7
2022-07-31T00:41:13.000Z,85.5
2022-07-31T00:42:31.000Z,85.2
2022-07-31T00:43:58.000Z,85.1
2022-07-31T00:46:42.000Z,85.1
2022-07-31T00:49:27.000Z,85.9
2022-07-31T00:52:12.000Z,86.8
2022-07-31T00:54:56.000Z,87.3
2022-07-31T00:57:41.000Z,87.5
2022-07-31T01:00:26.000Z,87.6
2022-07-31T01:03:10.000Z,87
2022-07-31T01:05:55.000Z,86.4
2022-07-31T01:08:39.000Z,85.9
2022-07-31T01:09:57.000Z,85.6
2022-07-31T01:11:24.000Z,85.8
2022-07-31T01:14:09.000Z,85.7
2022-07-31T01:16:53.000Z,86
2022-07-31T01:19:38.000Z,86.9
2022-07-31T01:22:23.000Z,87.2
2022-07-31T01:25:07.000Z,87.2
2022-07-31T01:27:52.000Z,86.8
2022-07-31T01:30:37.000Z,86
2022-07-31T01:33:21.000Z,85.5
2022-07-31T01:36:06.000Z,85.9
2022-07-31T01:37:24.000Z,86
2022-07-31T01:38:50.000Z,86.2
2022-07-31T01:41:35.000Z,86.5
2022-07-31T01:44:20.000Z,88.1
2022-07-31T01:49:49.000Z,88.4
2022-07-31T01:52:34.000Z,88
2022-07-31T01:55:18.000Z,87.6
2022-07-31T01:58:03.000Z,89.1
2022-07-31T02:00:48.000Z,90.1
2022-07-31T02:03:32.000Z,90
2022-07-31T02:04:50.000Z,89.2
2022-07-31T02:06:17.000Z,89.4
2022-07-31T02:09:02.000Z,89.9
2022-07-31T02:11:46.000Z,90.4
2022-07-31T02:14:31.000Z,90.8
2022-07-31T02:17:15.000Z,91.1
2022-07-31T02:20:00.000Z,91.6
2022-07-31T02:22:45.000Z,91.6
2022-07-31T02:25:29.000Z,92.1
2022-07-31T02:28:14.000Z,91.8
2022-07-31T02:30:59.000Z,92
2022-07-31T02:32:16.000Z,92
2022-07-31T02:33:43.000Z,91.9
2022-07-31T02:36:28.000Z,91.9
2022-07-31T02:39:13.000Z,91.9
2022-07-31T02:41:57.000Z,92.1
2022-07-31T02:44:42.000Z,91.6
2022-07-31T02:47:27.000Z,91.5
2022-07-31T02:50:11.000Z,92
2022-07-31T02:52:56.000Z,92
2022-07-31T02:55:40.000Z,92
2022-07-31T02:58:25.000Z,92.1
2022-07-31T02:59:43.000Z,92.7
2022-07-31T03:01:10.000Z,92.4
2022-07-31T03:03:54.000Z,92.2
2022-07-31T03:06:39.000Z,92
2022-07-31T03:09:24.000Z,92.1
2022-07-31T03:14:37.000Z,92.2
2022-07-31T03:17:21.000Z,92.4
2022-07-31T03:20:06.000Z,92.3
2022-07-31T03:25:35.000Z,93.7
2022-07-31T03:27:09.000Z,94.1
2022-07-31T03:28:27.000Z,94.4
2022-07-31T03:31:12.000Z,94.1
2022-07-31T03:33:56.000Z,93.8
2022-07-31T03:36:41.000Z,94.1
2022-07-31T03:39:26.000Z,94.4
2022-07-31T03:42:10.000Z,93.8
2022-07-31T03:44:55.000Z,93.9
2022-07-31T03:50:08.000Z,94.5
2022-07-31T03:52:52.000Z,96.3
2022-07-31T03:54:36.000Z,96
2022-07-31T03:55:53.000Z,95.2
2022-07-31T03:58:38.000Z,94.9
2022-07-31T04:01:23.000Z,94.4
2022-07-31T04:04:07.000Z,94.1
2022-07-31T04:06:52.000Z,94.5
2022-07-31T04:09:37.000Z,93.6
2022-07-31T04:12:21.000Z,93
2022-07-31T04:15:06.000Z,93.1
2022-07-31T04:17:51.000Z,93.3
2022-07-31T04:20:35.000Z,92.8
2022-07-31T04:23:20.000Z,93
2022-07-31T04:26:05.000Z,93
2022-07-31T04:28:49.000Z,92.7
2022-07-31T04:31:34.000Z,93.1
2022-07-31T04:34:18.000Z,92.6
2022-07-31T04:37:03.000Z,92.8
2022-07-31T04:39:48.000Z,93.3
2022-07-31T04:45:17.000Z,93.2
2022-07-31T04:46:45.000Z,93.2
2022-07-31T04:48:02.000Z,93
2022-07-31T04:50:47.000Z,92
2022-07-31T04:53:32.000Z,92.2
2022-07-31T04:56:16.000Z,91.6
2022-07-31T04:59:01.000Z,91.8
2022-07-31T05:01:46.000Z,91.7
2022-07-31T05:04:30.000Z,91
2022-07-31T05:07:15.000Z,90.2
2022-07-31T05:10:00.000Z,89.1
2022-07-31T05:12:44.000Z,87.8
2022-07-31T05:14:11.000Z,87.4
2022-07-31T05:15:29.000Z,87.9
2022-07-31T05:18:14.000Z,88
2022-07-31T05:20:58.000Z,88.6
2022-07-31T05:23:43.000Z,88.9
2022-07-31T05:26:27.000Z,87.8
2022-07-31T05:29:12.000Z,84.7
2022-07-31T05:31:57.000Z,84.6
2022-07-31T05:34:41.000Z,86.5
2022-07-31T05:37:26.000Z,84.9
2022-07-31T05:40:11.000Z,83.8
2022-07-31T05:41:38.000Z,84.1
2022-07-31T05:42:55.000Z,84
2022-07-31T05:45:40.000Z,84.1
2022-07-31T05:48:25.000Z,83.1
2022-07-31T05:51:09.000Z,84.4
2022-07-31T05:53:54.000Z,84.5
2022-07-31T05:56:39.000Z,82.6
2022-07-31T05:59:23.000Z,82.7
2022-07-31T06:02:08.000Z,82
2022-07-31T06:04:52.000Z,82.2
2022-07-31T06:07:37.000Z,81.9
2022-07-31T06:09:04.000Z,79.8
2022-07-31T06:10:22.000Z,78.3
2022-07-31T06:13:06.000Z,79.7
2022-07-31T06:15:51.000Z,78.8
2022-07-31T06:18:36.000Z,78.4
2022-07-31T06:24:05.000Z,76.7
2022-07-31T06:26:50.000Z,76.3
2022-07-31T06:29:34.000Z,74.6
2022-07-31T06:32:19.000Z,73
2022-07-31T06:35:04.000Z,71.1
2022-07-31T06:36:30.000Z,71.5
2022-07-31T06:37:48.000Z,70.6
2022-07-31T06:40:33.000Z,70.9
2022-07-31T06:43:17.000Z,69.3
2022-07-31T06:46:02.000Z,69
2022-07-31T06:51:31.000Z,69
2022-07-31T06:54:16.000Z,69.7
2022-07-31T06:57:01.000Z,70.2
2022-07-31T06:59:45.000Z,70.2
2022-07-31T07:02:30.000Z,69.3
2022-07-31T07:03:57.000Z,71
2022-07-31T07:05:15.000Z,69.1
2022-07-31T07:07:59.000Z,68.5
2022-07-31T07:10:44.000Z,68.5
2022-07-31T07:13:29.000Z,68.3
2022-07-31T07:16:13.000Z,69.1
2022-07-31T07:18:58.000Z,69.3
2022-07-31T07:21:42.000Z,69.4
2022-07-31T07:24:27.000Z,69
2022-07-31T07:27:12.000Z,69.3
2022-07-31T07:29:56.000Z,68.8
2022-07-31T07:31:23.000Z,68.5
2022-07-31T07:32:41.000Z,68.3
2022-07-31T07:35:26.000Z,68.5
2022-07-31T07:38:10.000Z,69.1
2022-07-31T07:40:55.000Z,68.2
2022-07-31T07:43:40.000Z,67.5
2022-07-31T07:46:24.000Z,68.2
2022-07-31T07:49:09.000Z,68.8
2022-07-31T07:51:53.000Z,67.5
2022-07-31T07:54:38.000Z,66.8
2022-07-31T07:57:23.000Z,66.8
2022-07-31T07:58:50.000Z,66.8
2022-07-31T08:00:07.000Z,67.2
2022-07-31T08:05:37.000Z,66.6
2022-07-31T08:11:06.000Z,64.7
2022-07-31T08:13:51.000Z,65.7
2022-07-31T08:19:04.000Z,66.3
2022-07-31T08:21:48.000Z,66.9
2022-07-31T08:24:33.000Z,67.6
2022-07-31T08:26:16.000Z,67.9
2022-07-31T08:27:34.000Z,67.9
2022-07-31T08:30:18.000Z,68.3
2022-07-31T08:33:03.000Z,67.5
2022-07-31T08:35:48.000Z,68.3
2022-07-31T08:38:32.000Z,68.3
2022-07-31T08:41:17.000Z,68.7
2022-07-31T08:44:02.000Z,69
2022-07-31T08:49:31.000Z,67.5
2022-07-31T08:52:16.000Z,68.6
2022-07-31T08:53:43.000Z,68.3
2022-07-31T08:55:17.000Z,67
2022-07-31T08:58:01.000Z,66.3
2022-07-31T09:00:46.000Z,65.8
2022-07-31T09:03:31.000Z,65.7
2022-07-31T09:06:15.000Z,65
2022-07-31T09:09:00.000Z,61.7
2022-07-31T09:11:44.000Z,62.4
2022-07-31T09:14:29.000Z,63.7
2022-07-31T09:17:14.000Z,63.1
2022-07-31T09:19:58.000Z,63.1
2022-07-31T09:21:16.000Z,60.8
2022-07-31T09:22:43.000Z,61.2
2022-07-31T09:25:44.000Z,60
2022-07-31T09:28:29.000Z,63.5
2022-07-31T09:33:58.000Z,62.6
2022-07-31T09:36:43.000Z,60.9
2022-07-31T09:39:27.000Z,58.1
2022-07-31T09:42:12.000Z,59.1
2022-07-31T09:44:57.000Z,59.1
2022-07-31T09:48:59.000Z,59.4
2022-07-31T09:50:26.000Z,60
2022-07-31T09:53:10.000Z,60.8
2022-07-31T09:58:40.000Z,60.8
2022-07-31T10:01:24.000Z,61.8
2022-07-31T10:04:09.000Z,62.7
2022-07-31T10:06:54.000Z,62.6
2022-07-31T10:09:55.000Z,64
2022-07-31T10:12:39.000Z,65.6
2022-07-31T10:15:24.000Z,64.3
2022-07-31T10:16:42.000Z,64.4
2022-07-31T10:18:09.000Z,63.5
2022-07-31T10:23:38.000Z,63.4
2022-07-31T10:26:23.000Z,64.4
2022-07-31T10:29:07.000Z,65.2
2022-07-31T10:31:52.000Z,65.2
2022-07-31T10:34:36.000Z,65.6
2022-07-31T10:37:21.000Z,64.9
2022-07-31T10:40:06.000Z,64.7
2022-07-31T10:42:50.000Z,65
2022-07-31T10:44:08.000Z,66.5
2022-07-31T10:45:35.000Z,67
2022-07-31T10:48:20.000Z,65.5
2022-07-31T10:51:04.000Z,65.7
2022-07-31T10:53:49.000Z,65.8
2022-07-31T10:56:34.000Z,65.4
2022-07-31T11:02:03.000Z,64
2022-07-31T11:04:48.000Z,63.2
2022-07-31T11:07:32.000Z,62.2
2022-07-31T11:10:17.000Z,60.1
2022-07-31T11:11:35.000Z,62.5
2022-07-31T11:13:01.000Z,61.9
2022-07-31T11:15:46.000Z,63.2
2022-07-31T11:18:31.000Z,63.7
2022-07-31T11:24:00.000Z,61.7
2022-07-31T11:26:45.000Z,62
2022-07-31T11:29:29.000Z,62.1
2022-07-31T11:32:14.000Z,61.2
2022-07-31T11:34:59.000Z,61.6
2022-07-31T11:37:43.000Z,62.5
2022-07-31T11:39:01.000Z,60.7
2022-07-31T11:40:28.000Z,61.9
2022-07-31T11:43:12.000Z,61
2022-07-31T11:45:57.000Z,62.8
2022-07-31T11:51:10.000Z,63
2022-07-31T11:53:55.000Z,64.8
2022-07-31T11:59:24.000Z,61.1
2022-07-31T12:02:09.000Z,61.8
2022-07-31T12:04:53.000Z,62.9
2022-07-31T12:06:27.000Z,63.5
2022-07-31T12:10:30.000Z,63.3
2022-07-31T12:13:14.000Z,64.2
2022-07-31T12:15:59.000Z,64.4
2022-07-31T12:19:00.000Z,65.8
2022-07-31T12:21:45.000Z,68.1
2022-07-31T12:24:29.000Z,70
2022-07-31T12:27:14.000Z,70.5
2022-07-31T12:29:59.000Z,71.5
2022-07-31T12:32:43.000Z,71.5
2022-07-31T12:34:01.000Z,72
2022-07-31T12:35:28.000Z,72.9
2022-07-31T12:38:13.000Z,72.2
2022-07-31T12:40:57.000Z,72.9
2022-07-31T12:43:42.000Z,72
2022-07-31T12:46:27.000Z,73.4
2022-07-31T12:49:27.000Z,72.9
2022-07-31T12:52:12.000Z,72.5
2022-07-31T12:54:57.000Z,71.6
2022-07-31T12:57:41.000Z,71.5
2022-07-31T13:00:26.000Z,72.7
2022-07-31T13:01:44.000Z,72.7
2022-07-31T13:03:11.000Z,73
2022-07-31T13:05:55.000Z,72.7
2022-07-31T13:08:40.000Z,72.1
2022-07-31T13:11:25.000Z,71.5
2022-07-31T13:14:09.000Z,70.9
2022-07-31T13:16:54.000Z,71.2
2022-07-31T13:19:39.000Z,72.5
2022-07-31T13:22:23.000Z,74.9
2022-07-31T13:25:08.000Z,74.3
2022-07-31T13:27:52.000Z,74.9
2022-07-31T13:29:10.000Z,74.8
2022-07-31T13:30:37.000Z,74.1
2022-07-31T13:33:22.000Z,73.5
2022-07-31T13:36:06.000Z,73.6
2022-07-31T13:38:51.000Z,73
2022-07-31T13:44:20.000Z,76.1
2022-07-31T13:47:05.000Z,74.9
2022-07-31T13:50:06.000Z,76.9
2022-07-31T13:52:51.000Z,75.7
2022-07-31T13:55:35.000Z,74.7
2022-07-31T13:56:53.000Z,73.9
2022-07-31T13:58:20.000Z,73.9
2022-07-31T14:01:05.000Z,73.7
2022-07-31T14:03:49.000Z,74.4
2022-07-31T14:06:34.000Z,74.3
2022-07-31T14:09:18.000Z,73.8
2022-07-31T14:12:03.000Z,71
2022-07-31T14:14:48.000Z,72.4
2022-07-31T14:17:32.000Z,71.4
2022-07-31T14:20:17.000Z,72.5
2022-07-31T14:23:02.000Z,72.3
2022-07-31T14:24:19.000Z,72
2022-07-31T14:25:46.000Z,72.6
2022-07-31T14:28:31.000Z,71.3
2022-07-31T14:31:16.000Z,71.4
2022-07-31T14:34:00.000Z,71.7
2022-07-31T14:36:45.000Z,72.1
2022-07-31T14:39:29.000Z,72.3
2022-07-31T14:42:14.000Z,70.9
2022-07-31T14:44:59.000Z,71
2022-07-31T14:47:43.000Z,71.5
2022-07-31T14:50:28.000Z,71
2022-07-31T14:51:46.000Z,70.6
2022-07-31T14:53:13.000Z,71
2022-07-31T14:55:57.000Z,70.7
2022-07-31T14:58:42.000Z,71.2
2022-07-31T15:01:27.000Z,71.3
2022-07-31T15:04:11.000Z,71.9
2022-07-31T15:06:56.000Z,74.2
2022-07-31T15:09:41.000Z,75.3
2022-07-31T15:12:25.000Z,75.6
2022-07-31T15:15:10.000Z,76.1
2022-07-31T15:17:54.000Z,75.9
2022-07-31T15:19:12.000Z,74.3
2022-07-31T15:20:39.000Z,73.7
2022-07-31T15:23:24.000Z,74.4
2022-07-31T15:26:08.000Z,74.4
2022-07-31T15:28:53.000Z,71.3
2022-07-31T15:31:38.000Z,71.1
2022-07-31T15:34:22.000Z,70
2022-07-31T15:37:07.000Z,68
2022-07-31T15:39:52.000Z,68.1
2022-07-31T15:42:36.000Z,68.2
2022-07-31T15:45:21.000Z,68.4
2022-07-31T15:46:39.000Z,68.6
2022-07-31T15:48:05.000Z,68.6
2022-07-31T15:50:50.000Z,69
2022-07-31T15:53:35.000Z,68.8
2022-07-31T15:59:04.000Z,67.9
2022-07-31T16:01:49.000Z,67.5
2022-07-31T16:04:33.000Z,67.2
2022-07-31T16:07:18.000Z,68.3
2022-07-31T16:10:03.000Z,68.2
2022-07-31T16:12:47.000Z,69.1
2022-07-31T16:14:05.000Z,67.9
2022-07-31T16:15:32.000Z,68.7
2022-07-31T16:18:17.000Z,68.7
2022-07-31T16:21:01.000Z,69.1
2022-07-31T16:23:46.000Z,68.8
2022-07-31T16:26:30.000Z,69.4
2022-07-31T16:29:15.000Z,70.2
2022-07-31T16:32:00.000Z,70.6
2022-07-31T16:34:44.000Z,71.3
2022-07-31T16:37:29.000Z,72.6
2022-07-31T16:40:14.000Z,74.4
2022-07-31T16:41:31.000Z,74.7
2022-07-31T16:42:58.000Z,75.9
2022-07-31T16:45:43.000Z,76.8
2022-07-31T16:48:28.000Z,80.7
2022-07-31T16:51:12.000Z,85
2022-07-31T16:53:57.000Z,90.5
2022-07-31T16:59:26.000Z,97.2
2022-07-31T17:02:11.000Z,99.1
2022-07-31T17:07:40.000Z,100
2022-07-31T17:08:58.000Z,100
2022-07-31T17:10:25.000Z,100
2022-07-31T17:13:09.000Z,100
2022-07-31T17:15:54.000Z,100
2022-07-31T17:18:39.000Z,100
2022-07-31T17:21:23.000Z,100
2022-07-31T17:24:24.000Z,100
2022-07-31T17:27:09.000Z,100
2022-07-31T17:29:54.000Z,100
2022-07-31T17:32:38.000Z,100
2022-07-31T17:35:23.000Z,100
2022-07-31T17:36:41.000Z,100
2022-07-31T17:38:08.000Z,100
2022-07-31T17:40:52.000Z,100
2022-07-31T17:43:37.000Z,100
2022-07-31T17:46:21.000Z,100
2022-07-31T17:49:06.000Z,100
2022-07-31T17:54:35.000Z,100
2022-07-31T18:00:05.000Z,100
2022-07-31T18:02:49.000Z,100
2022-07-31T18:04:07.000Z,100
2022-07-31T18:05:34.000Z,100
2022-07-31T18:08:19.000Z,100
2022-07-31T18:11:03.000Z,100
2022-07-31T18:13:48.000Z,100
2022-07-31T18:16:32.000Z,100
2022-07-31T18:19:17.000Z,100
2022-07-31T18:22:02.000Z,100
2022-07-31T18:24:46.000Z,100
2022-07-31T18:27:31.000Z,100
2022-07-31T18:30:16.000Z,100
2022-07-31T18:31:33.000Z,100
2022-07-31T18:33:00.000Z,100
2022-07-31T18:35:45.000Z,100
2022-07-31T18:38:30.000Z,100
2022-07-31T18:41:14.000Z,100
2022-07-31T18:43:59.000Z,100
2022-07-31T18:46:44.000Z,100
2022-07-31T18:49:28.000Z,100
2022-07-31T18:52:13.000Z,100
2022-07-31T18:57:26.000Z,100
2022-07-31T18:59:00.000Z,100
2022-07-31T19:00:18.000Z,100
2022-07-31T19:03:02.000Z,100
2022-07-31T19:05:47.000Z,100
2022-07-31T19:08:31.000Z,100
2022-07-31T19:11:16.000Z,100
2022-07-31T19:14:01.000Z,100
2022-07-31T19:16:45.000Z,100
2022-07-31T19:22:15.000Z,100
2022-07-31T19:24:59.000Z,100
2022-07-31T19:26:26.000Z,100
2022-07-31T19:27:44.000Z,100
2022-07-31T19:33:13.000Z,100
2022-07-31T19:35:58.000Z,100
2022-07-31T19:38:43.000Z,100
2022-07-31T19:41:27.000Z,100
2022-07-31T19:44:12.000Z,100
2022-07-31T19:46:56.000Z,100
2022-07-31T19:49:41.000Z,100
2022-07-31T19:52:26.000Z,100
2022-07-31T19:53:53.000Z,100
2022-07-31T19:55:10.000Z,100
2022-07-31T19:57:55.000Z,100
2022-07-31T20:03:24.000Z,100
2022-07-31T20:06:09.000Z,100
2022-07-31T20:08:54.000Z,100
2022-07-31T20:11:38.000Z,100
2022-07-31T20:14:23.000Z,100
2022-07-31T20:17:08.000Z,100
2022-07-31T20:19:52.000Z,100
2022-07-31T20:21:19.000Z,100
2022-07-31T20:22:37.000Z,100
2022-07-31T20:25:21.000Z,100
2022-07-31T20:28:06.000Z,100
2022-07-31T20:30:51.000Z,100
2022-07-31T20:33:35.000Z,100
2022-07-31T20:36:20.000Z,100
2022-07-31T20:39:05.000Z,100
2022-07-31T20:41:49.000Z,100
2022-07-31T20:44:34.000Z,100
2022-07-31T20:47:19.000Z,100
2022-07-31T20:50:03.000Z,100
2022-07-31T20:55:33.000Z,100
2022-07-31T20:58:17.000Z,100
2022-07-31T21:03:46.000Z,100
2022-07-31T21:06:31.000Z,100
2022-07-31T21:09:16.000Z,100
2022-07-31T21:12:00.000Z,100
2022-07-31T21:14:45.000Z,100
2022-07-31T21:17:30.000Z,100
2022-07-31T21:20:14.000Z,100
2022-07-31T21:22:59.000Z,100
2022-07-31T21:25:44.000Z,100
2022-07-31T21:28:28.000Z,100
2022-07-31T21:31:13.000Z,100
2022-07-31T21:34:14.000Z,100
2022-07-31T21:36:59.000Z,100
2022-07-31T21:39:43.000Z,100
2022-07-31T21:42:28.000Z,100
2022-07-31T21:43:46.000Z,100
2022-07-31T21:45:12.000Z,100
2022-07-31T21:47:57.000Z,100
2022-07-31T21:50:42.000Z,100
2022-07-31T21:53:26.000Z,100
2022-07-31T21:56:11.000Z,100
2022-07-31T21:58:56.000Z,100
2022-07-31T22:04:25.000Z,100
2022-07-31T22:09:54.000Z,100
2022-07-31T22:11:12.000Z,100
2022-07-31T22:12:39.000Z,100
2022-07-31T22:15:24.000Z,100
2022-07-31T22:18:08.000Z,100
2022-07-31T22:20:53.000Z,100
2022-07-31T22:26:22.000Z,100
2022-07-31T22:31:51.000Z,100
2022-07-31T22:38:38.000Z,100
2022-07-31T22:39:56.000Z,100
2022-07-31T22:42:41.000Z,100
2022-07-31T22:45:25.000Z,100
2022-07-31T22:48:10.000Z,100
2022-07-31T22:50:55.000Z,100
2022-07-31T22:56:24.000Z,100
2022-07-31T22:59:09.000Z,100
2022-07-31T23:01:53.000Z,100
2022-07-31T23:06:05.000Z,100
2022-07-31T23:09:51.000Z,100
2022-07-31T23:12:36.000Z,100
2022-07-31T23:15:20.000Z,100
2022-07-31T23:20:50.000Z,100
2022-07-31T23:23:34.000Z,100
2022-07-31T23:26:19.000Z,100
2022-07-31T23:29:03.000Z,100
2022-07-31T23:31:48.000Z,100
2022-07-31T23:33:31.000Z,100
2022-07-31T23:34:49.000Z,100
2022-07-31T23:37:34.000Z,100
2022-07-31T23:40:18.000Z,100
2022-07-31T23:45:31.000Z,100
2022-07-31T23:56:30.000Z,100
2022-07-31T23:59:15.000Z,100
